createdAt,value
2017-09-16T00:00:51.346Z,90.60
2017-09-16T00:03:20.543Z,90.60
2017-09-16T00:05:49.011Z,90.60
2017-09-16T00:08:17.671Z,90.90
2017-09-16T00:10:46.007Z,90.90
2017-09-16T00:13:14.362Z,90.70
2017-09-16T00:15:43.239Z,90.90
2017-09-16T00:18:12.541Z,90.90
2017-09-16T00:20:41.569Z,90.70
2017-09-16T00:23:10.128Z,91.10
2017-09-16T00:25:38.480Z,91.10
2017-09-16T00:28:07.577Z,91.20
2017-09-16T00:30:38.719Z,91.20
2017-09-16T00:33:07.099Z,91.10
2017-09-16T00:35:35.471Z,91.30
2017-09-16T00:38:03.848Z,91.10
2017-09-16T00:40:32.199Z,91.10
2017-09-16T00:43:01.521Z,91.10
2017-09-16T00:45:29.998Z,91.00
2017-09-16T00:47:58.338Z,91.10
2017-09-16T00:50:27.505Z,91.20
2017-09-16T00:52:56.525Z,91.20
2017-09-16T00:55:25.305Z,91.20
2017-09-16T00:57:55.261Z,91.20
2017-09-16T01:00:23.968Z,91.10
2017-09-16T01:02:52.143Z,91.20
2017-09-16T01:05:20.693Z,91.20
2017-09-16T01:07:49.032Z,91.20
2017-09-16T01:10:19.502Z,91.20
2017-09-16T01:12:47.834Z,91.20
2017-09-16T01:15:16.198Z,91.20
2017-09-16T01:17:44.761Z,91.20
2017-09-16T01:20:12.455Z,91.20
2017-09-16T01:22:40.565Z,91.20
2017-09-16T01:25:08.930Z,91.20
2017-09-16T01:27:36.996Z,91.60
2017-09-16T01:30:05.657Z,91.20
2017-09-16T01:32:34.261Z,91.30
2017-09-16T01:35:03.090Z,91.30
2017-09-16T01:37:31.096Z,91.30
2017-09-16T01:39:59.890Z,91.20
2017-09-16T01:42:28.870Z,91.30
2017-09-16T01:44:58.192Z,91.70
2017-09-16T01:47:26.546Z,91.70
2017-09-16T01:49:54.892Z,91.70
2017-09-16T01:52:23.305Z,91.70
2017-09-16T01:54:51.659Z,91.60
2017-09-16T01:57:20.025Z,91.60
2017-09-16T01:59:48.424Z,91.70
2017-09-16T02:02:18.311Z,91.40
2017-09-16T02:04:46.672Z,91.60
2017-09-16T02:07:15.112Z,91.40
2017-09-16T02:09:43.451Z,91.20
2017-09-16T02:12:12.567Z,91.40
2017-09-16T02:14:41.080Z,91.40
2017-09-16T02:17:09.443Z,91.50
2017-09-16T02:19:37.839Z,91.40
2017-09-16T02:22:06.227Z,91.50
2017-09-16T02:24:34.594Z,91.50
2017-09-16T02:27:02.984Z,91.60
2017-09-16T02:29:31.473Z,91.30
2017-09-16T02:31:59.858Z,91.30
2017-09-16T02:34:29.734Z,91.40
2017-09-16T02:37:00.197Z,91.40
2017-09-16T02:39:28.535Z,91.80
2017-09-16T02:41:57.525Z,91.30
2017-09-16T02:44:26.511Z,91.30
2017-09-16T02:46:55.067Z,91.50
2017-09-16T02:49:23.416Z,91.30
2017-09-16T02:51:51.766Z,91.30
2017-09-16T02:54:20.308Z,91.50
2017-09-16T02:56:48.650Z,91.40
2017-09-16T02:59:16.809Z,91.40
2017-09-16T03:01:47.128Z,91.20
2017-09-16T03:04:15.539Z,91.50
2017-09-16T03:06:43.885Z,91.30
2017-09-16T03:09:13.008Z,91.40
2017-09-16T03:11:41.356Z,91.40
2017-09-16T03:14:09.747Z,91.50
2017-09-16T03:16:37.925Z,91.50
2017-09-16T03:19:06.290Z,91.40
2017-09-16T03:21:34.783Z,91.50
2017-09-16T03:24:03.189Z,91.50
2017-09-16T03:26:31.742Z,91.40
2017-09-16T03:29:01.067Z,91.60
2017-09-16T03:31:29.415Z,91.50
2017-09-16T03:33:57.871Z,91.60
2017-09-16T03:36:26.274Z,91.70
2017-09-16T03:38:54.646Z,91.50
2017-09-16T03:41:22.995Z,91.60
2017-09-16T03:43:51.334Z,91.50
2017-09-16T03:46:20.410Z,91.60
2017-09-16T03:48:48.774Z,91.60
2017-09-16T03:51:17.130Z,91.60
2017-09-16T03:53:46.039Z,91.70
2017-09-16T03:56:14.467Z,91.70
2017-09-16T03:58:42.474Z,91.60
2017-09-16T04:01:10.150Z,91.60
2017-09-16T04:03:38.547Z,91.60
2017-09-16T04:06:06.932Z,91.70
2017-09-16T04:08:35.288Z,91.70
2017-09-16T04:11:05.071Z,91.60
2017-09-16T04:13:35.186Z,91.80
2017-09-16T04:16:03.518Z,91.70
2017-09-16T04:18:32.656Z,92.00
2017-09-16T04:21:00.831Z,91.80
2017-09-16T04:23:29.004Z,91.90
2017-09-16T04:25:57.372Z,91.80
2017-09-16T04:28:25.752Z,91.80
2017-09-16T04:30:54.097Z,91.80
2017-09-16T04:33:22.452Z,91.90
2017-09-16T04:35:50.796Z,91.90
2017-09-16T04:38:19.373Z,92.10
2017-09-16T04:40:47.994Z,92.10
2017-09-16T04:43:16.561Z,92.00
2017-09-16T04:45:44.918Z,92.00
2017-09-16T04:48:13.041Z,92.00
2017-09-16T04:50:42.027Z,91.90
2017-09-16T04:53:11.330Z,92.10
2017-09-16T04:55:39.682Z,92.10
2017-09-16T04:58:08.043Z,91.90
2017-09-16T05:00:36.650Z,91.80
2017-09-16T05:03:06.594Z,91.80
2017-09-16T05:05:34.972Z,91.70
2017-09-16T05:08:03.349Z,92.00
2017-09-16T05:10:31.769Z,91.80
2017-09-16T05:13:00.135Z,92.00
2017-09-16T05:15:28.503Z,92.00
2017-09-16T05:17:56.857Z,91.90
2017-09-16T05:20:25.331Z,92.10
2017-09-16T05:22:53.806Z,92.20
2017-09-16T05:25:22.142Z,92.30
2017-09-16T05:27:50.498Z,92.20
2017-09-16T05:30:18.862Z,92.20
2017-09-16T05:32:47.233Z,92.40
2017-09-16T05:35:15.685Z,92.30
2017-09-16T05:37:44.031Z,92.30
2017-09-16T05:40:12.390Z,92.20
2017-09-16T05:42:40.756Z,92.40
2017-09-16T05:45:09.106Z,92.50
2017-09-16T05:47:37.515Z,92.30
2017-09-16T05:50:05.886Z,92.30
2017-09-16T05:52:34.237Z,92.50
2017-09-16T05:55:02.586Z,92.50
2017-09-16T05:57:31.514Z,92.70
2017-09-16T05:59:59.907Z,92.70
2017-09-16T06:02:28.258Z,92.60
2017-09-16T06:04:56.610Z,92.70
2017-09-16T06:07:25.923Z,92.50
2017-09-16T06:09:54.343Z,92.60
2017-09-16T06:12:23.359Z,92.60
2017-09-16T06:14:51.563Z,92.70
2017-09-16T06:17:23.143Z,92.60
2017-09-16T06:19:52.498Z,92.60
2017-09-16T06:22:20.846Z,92.70
2017-09-16T06:24:50.805Z,92.60
2017-09-16T06:27:19.150Z,92.50
2017-09-16T06:29:47.506Z,92.60
2017-09-16T06:32:15.812Z,92.40
2017-09-16T06:34:43.997Z,92.30
2017-09-16T06:37:13.380Z,92.20
2017-09-16T06:39:41.914Z,92.20
2017-09-16T06:42:12.454Z,91.90
2017-09-16T06:44:41.583Z,91.90
2017-09-16T06:56:49.932Z,91.80
2017-09-16T06:59:18.316Z,91.50
2017-09-16T07:01:46.694Z,91.30
2017-09-16T07:04:15.046Z,91.20
2017-09-16T07:06:43.475Z,91.20
2017-09-16T07:09:12.098Z,91.20
2017-09-16T07:11:42.108Z,91.40
2017-09-16T07:14:10.457Z,91.30
2017-09-16T07:16:38.815Z,91.50
2017-09-16T07:19:07.927Z,91.30
2017-09-16T07:21:36.289Z,91.40
2017-09-16T07:24:04.650Z,90.30
2017-09-16T07:26:33.730Z,90.20
2017-09-16T07:29:03.130Z,90.10
2017-09-16T07:31:32.834Z,89.90
2017-09-16T07:34:02.187Z,89.90
2017-09-16T07:36:30.543Z,90.00
2017-09-16T07:38:58.932Z,90.00
2017-09-16T07:41:27.110Z,89.90
2017-09-16T07:43:55.479Z,88.50
2017-09-16T07:46:23.650Z,88.70
2017-09-16T07:48:52.047Z,89.40
2017-09-16T07:51:20.769Z,88.60
2017-09-16T07:53:49.595Z,88.90
2017-09-16T07:56:17.968Z,89.10
2017-09-16T07:58:46.595Z,88.70
2017-09-16T08:01:14.958Z,88.20
2017-09-16T08:03:43.336Z,87.70
2017-09-16T08:06:11.945Z,87.70
2017-09-16T08:08:40.401Z,87.50
2017-09-16T08:11:08.760Z,87.70
2017-09-16T08:13:37.348Z,87.80
2017-09-16T08:16:06.309Z,88.10
2017-09-16T08:18:34.677Z,88.10
2017-09-16T08:21:03.023Z,87.40
2017-09-16T08:23:33.134Z,87.70
2017-09-16T08:26:03.868Z,87.70
2017-09-16T08:28:33.861Z,88.10
2017-09-16T08:31:02.229Z,88.10
2017-09-16T08:33:30.584Z,88.20
2017-09-16T08:35:58.934Z,88.00
2017-09-16T08:38:27.931Z,88.30
2017-09-16T08:40:56.682Z,87.90
2017-09-16T08:43:25.984Z,87.70
2017-09-16T08:45:55.777Z,87.40
2017-09-16T08:48:25.702Z,86.70
2017-09-16T08:50:54.076Z,86.60
2017-09-16T08:53:22.428Z,86.10
2017-09-16T08:55:50.791Z,84.40
2017-09-16T08:58:19.159Z,84.10
2017-09-16T09:00:46.826Z,84.10
2017-09-16T09:03:15.963Z,82.20
2017-09-16T09:05:44.305Z,82.00
2017-09-16T09:08:12.672Z,82.30
2017-09-16T09:10:40.844Z,81.10
2017-09-16T09:13:09.157Z,80.10
2017-09-16T09:15:37.504Z,79.40
2017-09-16T09:18:05.881Z,78.70
2017-09-16T09:20:34.238Z,77.60
2017-09-16T09:23:02.652Z,76.90
2017-09-16T09:25:31.078Z,77.20
2017-09-16T09:27:59.447Z,76.10
2017-09-16T09:30:28.041Z,75.50
2017-09-16T09:32:56.399Z,75.00
2017-09-16T09:35:24.776Z,74.90
2017-09-16T09:37:53.128Z,74.40
2017-09-16T09:40:21.530Z,74.00
2017-09-16T09:42:49.900Z,73.30
2017-09-16T09:45:18.556Z,72.70
2017-09-16T09:47:46.894Z,73.20
2017-09-16T09:50:15.279Z,70.80
2017-09-16T09:52:43.629Z,70.90
2017-09-16T09:55:12.160Z,70.90
2017-09-16T09:57:40.604Z,69.70
2017-09-16T10:00:09.231Z,68.30
2017-09-16T10:02:37.664Z,67.50
2017-09-16T10:05:06.275Z,67.60
2017-09-16T10:07:34.636Z,68.30
2017-09-16T10:10:03.000Z,68.00
2017-09-16T10:12:31.944Z,65.10
2017-09-16T10:15:00.400Z,65.10
2017-09-16T10:17:28.845Z,66.30
2017-09-16T10:19:57.201Z,66.60
2017-09-16T10:22:25.554Z,65.80
2017-09-16T10:24:53.919Z,64.80
2017-09-16T10:27:22.285Z,63.10
2017-09-16T10:29:50.667Z,61.80
2017-09-16T10:32:19.232Z,61.00
2017-09-16T10:34:47.610Z,61.20
2017-09-16T10:37:16.086Z,60.00
2017-09-16T10:39:44.427Z,57.50
2017-09-16T10:42:12.793Z,56.40
2017-09-16T10:44:41.158Z,56.60
2017-09-16T10:47:09.513Z,58.00
2017-09-16T10:49:38.070Z,58.80
2017-09-16T10:52:06.428Z,57.00
2017-09-16T10:54:34.786Z,56.80
2017-09-16T10:57:03.936Z,56.60
2017-09-16T10:59:32.292Z,56.70
2017-09-16T11:02:00.648Z,56.20
2017-09-16T11:04:29.039Z,56.00
2017-09-16T11:06:57.314Z,56.70
2017-09-16T11:09:25.664Z,55.70
2017-09-16T11:11:54.790Z,55.40
2017-09-16T11:14:23.366Z,55.40
2017-09-16T11:16:51.863Z,56.10
2017-09-16T11:19:20.229Z,54.70
2017-09-16T11:21:48.598Z,55.40
2017-09-16T11:24:16.780Z,56.00
2017-09-16T11:26:45.146Z,54.80
2017-09-16T11:29:13.494Z,55.00
2017-09-16T11:31:41.858Z,55.10
2017-09-16T11:34:10.222Z,54.70
2017-09-16T11:36:38.247Z,53.90
2017-09-16T11:39:06.611Z,53.00
2017-09-16T11:41:34.967Z,54.00
2017-09-16T11:44:03.332Z,54.10
2017-09-16T11:46:32.456Z,52.90
2017-09-16T11:49:01.392Z,52.90
2017-09-16T11:51:29.782Z,54.20
2017-09-16T11:53:58.141Z,54.40
2017-09-16T11:56:26.506Z,54.50
2017-09-16T11:58:54.857Z,54.40
2017-09-16T12:01:23.223Z,54.90
2017-09-16T12:03:51.702Z,55.40
2017-09-16T12:06:20.062Z,55.80
2017-09-16T12:08:48.412Z,55.40
2017-09-16T12:11:16.987Z,56.10
2017-09-16T12:13:46.107Z,55.00
2017-09-16T12:16:14.471Z,55.00
2017-09-16T12:18:43.582Z,53.90
2017-09-16T12:21:11.959Z,53.80
2017-09-16T12:23:40.346Z,53.10
2017-09-16T12:26:08.694Z,52.90
2017-09-16T12:28:37.822Z,51.80
2017-09-16T12:31:06.195Z,51.70
2017-09-16T12:33:34.670Z,52.10
2017-09-16T12:36:03.022Z,51.20
2017-09-16T12:38:31.399Z,50.20
2017-09-16T12:40:59.783Z,49.80
2017-09-16T12:43:28.195Z,47.00
2017-09-16T12:45:57.573Z,46.10
2017-09-16T12:48:26.265Z,46.00
2017-09-16T12:50:54.620Z,47.50
2017-09-16T12:53:23.239Z,46.90
2017-09-16T12:55:53.171Z,48.50
2017-09-16T12:58:22.198Z,49.10
2017-09-16T13:00:51.901Z,49.30
2017-09-16T13:03:21.201Z,48.80
2017-09-16T13:05:51.196Z,48.70
2017-09-16T13:08:20.933Z,49.10
2017-09-16T13:10:49.092Z,49.40
2017-09-16T13:13:17.457Z,47.70
2017-09-16T13:15:46.687Z,47.40
2017-09-16T13:18:15.044Z,47.40
2017-09-16T13:20:43.401Z,47.60
2017-09-16T13:23:12.536Z,47.60
2017-09-16T13:25:41.010Z,47.60
2017-09-16T13:28:09.346Z,48.00
2017-09-16T13:30:37.713Z,48.50
2017-09-16T13:33:06.063Z,49.10
2017-09-16T13:35:34.512Z,48.70
2017-09-16T13:38:02.950Z,47.50
2017-09-16T13:40:31.127Z,47.90
2017-09-16T13:42:59.307Z,48.90
2017-09-16T13:45:28.443Z,48.20
2017-09-16T13:47:57.036Z,48.10
2017-09-16T13:50:25.388Z,48.50
2017-09-16T13:52:53.799Z,48.80
2017-09-16T13:55:22.341Z,49.60
2017-09-16T13:57:50.723Z,49.00
2017-09-16T14:00:19.589Z,48.90
2017-09-16T14:02:47.940Z,49.10
2017-09-16T14:05:18.699Z,49.40
2017-09-16T14:07:46.878Z,49.40
2017-09-16T14:10:15.295Z,48.50
2017-09-16T14:12:43.851Z,48.80
2017-09-16T14:15:12.218Z,49.00
2017-09-16T14:17:40.647Z,48.70
2017-09-16T14:20:09.008Z,47.90
2017-09-16T14:22:37.367Z,48.30
2017-09-16T14:25:06.719Z,47.90
2017-09-16T14:27:35.834Z,48.70
2017-09-16T14:30:06.651Z,48.60
2017-09-16T14:32:35.042Z,49.10
2017-09-16T14:35:03.201Z,48.60
2017-09-16T14:37:31.568Z,48.90
2017-09-16T14:39:59.923Z,49.20
2017-09-16T14:42:28.282Z,49.50
2017-09-16T14:44:56.657Z,49.30
2017-09-16T14:47:25.696Z,48.60
2017-09-16T14:49:54.189Z,48.00
2017-09-16T14:52:22.564Z,48.30
2017-09-16T14:54:51.043Z,48.10
2017-09-16T14:57:19.405Z,47.40
2017-09-16T14:59:47.753Z,46.60
2017-09-16T15:02:16.694Z,47.20
2017-09-16T15:04:45.160Z,47.20
2017-09-16T15:07:13.511Z,46.20
2017-09-16T15:09:42.001Z,45.10
2017-09-16T15:12:10.356Z,46.00
2017-09-16T15:14:39.471Z,46.50
2017-09-16T15:17:07.831Z,46.40
2017-09-16T15:19:36.195Z,46.70
2017-09-16T15:22:05.315Z,46.30
2017-09-16T15:24:33.683Z,46.30
2017-09-16T15:27:02.591Z,45.50
2017-09-16T15:29:30.953Z,45.80
2017-09-16T15:31:59.651Z,46.90
2017-09-16T15:34:28.013Z,47.40
2017-09-16T15:36:56.375Z,47.60
2017-09-16T15:39:25.699Z,48.50
2017-09-16T15:41:54.072Z,48.50
2017-09-16T15:44:22.455Z,48.80
2017-09-16T15:46:50.806Z,48.90
2017-09-16T15:49:19.178Z,49.10
2017-09-16T15:51:47.581Z,48.80
2017-09-16T15:54:15.933Z,48.60
2017-09-16T15:56:45.400Z,48.50
2017-09-16T15:59:13.755Z,48.40
2017-09-16T16:01:42.343Z,48.60
2017-09-16T16:04:10.711Z,48.60
2017-09-16T16:06:39.075Z,48.30
2017-09-16T16:09:07.652Z,48.60
2017-09-16T16:11:35.667Z,48.60
2017-09-16T16:14:04.025Z,49.80
2017-09-16T16:16:32.395Z,51.70
2017-09-16T16:19:01.452Z,54.10
2017-09-16T16:21:29.806Z,58.00
2017-09-16T16:23:58.945Z,60.10
2017-09-16T16:26:27.294Z,60.00
2017-09-16T16:28:56.189Z,62.60
2017-09-16T16:31:24.585Z,61.20
2017-09-16T16:33:52.943Z,59.80
2017-09-16T16:36:21.648Z,58.60
2017-09-16T16:38:50.017Z,60.30
2017-09-16T16:41:18.509Z,59.80
2017-09-16T16:43:47.060Z,59.00
2017-09-16T16:46:15.509Z,58.40
2017-09-16T16:48:44.734Z,57.90
2017-09-16T16:51:13.081Z,57.90
2017-09-16T16:53:42.253Z,57.40
2017-09-16T16:56:10.633Z,57.40
2017-09-16T16:58:39.042Z,57.40
2017-09-16T17:01:07.399Z,57.20
2017-09-16T17:03:35.762Z,57.00
2017-09-16T17:06:04.130Z,57.50
2017-09-16T17:08:32.517Z,58.10
2017-09-16T17:11:00.889Z,57.30
2017-09-16T17:13:29.668Z,58.00
2017-09-16T17:15:58.205Z,58.10
2017-09-16T17:18:26.559Z,58.60
2017-09-16T17:20:54.954Z,59.80
2017-09-16T17:23:23.198Z,59.10
2017-09-16T17:25:51.399Z,60.00
2017-09-16T17:28:19.760Z,60.10
2017-09-16T17:30:48.227Z,61.60
2017-09-16T17:33:16.640Z,61.40
2017-09-16T17:35:45.208Z,61.80
2017-09-16T17:38:13.889Z,61.90
2017-09-16T17:40:42.265Z,62.60
2017-09-16T17:43:10.627Z,62.30
2017-09-16T17:45:39.225Z,61.80
2017-09-16T17:48:07.579Z,62.30
2017-09-16T17:50:36.074Z,61.90
2017-09-16T17:53:04.449Z,61.60
2017-09-16T17:55:32.880Z,61.90
2017-09-16T17:58:01.109Z,62.70
2017-09-16T18:00:29.588Z,63.40
2017-09-16T18:02:58.266Z,63.10
2017-09-16T18:05:26.636Z,64.30
2017-09-16T18:07:54.995Z,65.60
2017-09-16T18:10:23.350Z,66.00
2017-09-16T18:12:52.476Z,66.30
2017-09-16T18:15:21.633Z,66.10
2017-09-16T18:17:50.041Z,66.80
2017-09-16T18:20:18.412Z,67.40
2017-09-16T18:22:46.814Z,68.30
2017-09-16T18:25:15.445Z,68.50
2017-09-16T18:27:44.329Z,68.80
2017-09-16T18:30:12.888Z,70.10
2017-09-16T18:32:41.249Z,70.10
2017-09-16T18:35:09.602Z,70.90
2017-09-16T18:37:37.968Z,71.20
2017-09-16T18:40:06.320Z,71.00
2017-09-16T18:42:34.733Z,70.70
2017-09-16T18:45:03.100Z,71.10
2017-09-16T18:47:31.473Z,71.70
2017-09-16T18:49:59.838Z,72.20
2017-09-16T18:52:28.342Z,72.80
2017-09-16T18:54:56.707Z,73.30
2017-09-16T18:57:31.081Z,73.70
2017-09-16T19:00:07.605Z,74.20
2017-09-16T19:02:36.039Z,74.20
2017-09-16T19:05:04.274Z,74.60
2017-09-16T19:07:32.643Z,74.60
2017-09-16T19:10:01.005Z,74.90
2017-09-16T19:12:29.582Z,75.10
2017-09-16T19:14:58.134Z,75.70
2017-09-16T19:17:26.519Z,75.70
2017-09-16T19:19:54.918Z,76.30
2017-09-16T19:22:23.599Z,76.70
2017-09-16T19:24:52.079Z,77.10
2017-09-16T19:27:20.437Z,77.20
2017-09-16T19:29:49.563Z,77.90
2017-09-16T19:32:17.735Z,77.90
2017-09-16T19:34:46.092Z,77.70
2017-09-16T19:37:14.543Z,76.80
2017-09-16T19:39:42.913Z,77.60
2017-09-16T19:42:11.274Z,77.70
2017-09-16T19:44:40.010Z,77.90
2017-09-16T19:47:08.439Z,78.00
2017-09-16T19:49:36.812Z,78.40
2017-09-16T19:52:05.168Z,78.90
2017-09-16T19:54:33.406Z,78.90
2017-09-16T19:57:01.801Z,79.10
2017-09-16T19:59:29.960Z,79.20
2017-09-16T20:01:58.135Z,79.90
2017-09-16T20:04:26.709Z,80.00
2017-09-16T20:06:55.085Z,80.20
2017-09-16T20:09:23.559Z,80.70
2017-09-16T20:11:51.919Z,80.80
2017-09-16T20:14:20.532Z,80.80
2017-09-16T20:16:48.896Z,80.80
2017-09-16T20:19:17.272Z,81.00
2017-09-16T20:21:45.632Z,81.20
2017-09-16T20:24:14.008Z,81.20
2017-09-16T20:26:42.395Z,81.30
2017-09-16T20:29:10.753Z,81.30
2017-09-16T20:31:39.119Z,81.20
2017-09-16T20:34:07.483Z,80.90
2017-09-16T20:36:35.902Z,80.70
2017-09-16T20:39:03.563Z,80.50
2017-09-16T20:41:32.002Z,80.00
2017-09-16T20:44:01.133Z,79.90
2017-09-16T20:46:29.540Z,79.80
2017-09-16T20:48:58.087Z,80.00
2017-09-16T20:51:26.540Z,79.20
2017-09-16T20:53:54.907Z,79.10
2017-09-16T20:56:23.261Z,79.50
2017-09-16T20:58:51.646Z,79.10
2017-09-16T21:01:20.023Z,78.90
2017-09-16T21:03:48.597Z,79.00
2017-09-16T21:06:16.959Z,79.50
2017-09-16T21:08:45.401Z,79.10
2017-09-16T21:11:13.749Z,79.20
2017-09-16T21:13:42.111Z,79.20
2017-09-16T21:16:10.489Z,78.80
2017-09-16T21:18:38.854Z,78.30
2017-09-16T21:21:08.018Z,78.40
2017-09-16T21:23:36.581Z,78.30
2017-09-16T21:26:04.939Z,78.40
2017-09-16T21:28:33.444Z,78.20
2017-09-16T21:31:02.905Z,78.10
2017-09-16T21:33:31.263Z,77.80
2017-09-16T21:35:59.965Z,77.80
2017-09-16T21:38:28.121Z,77.70
2017-09-16T21:40:56.481Z,78.30
2017-09-16T21:43:25.018Z,78.60
2017-09-16T21:45:53.183Z,77.70
2017-09-16T21:48:21.801Z,76.90
2017-09-16T21:50:50.158Z,77.50
2017-09-16T21:53:18.626Z,76.60
2017-09-16T21:55:46.986Z,76.60
2017-09-16T21:58:15.378Z,77.00
2017-09-16T22:00:43.718Z,76.80
2017-09-16T22:03:12.241Z,76.80
2017-09-16T22:05:41.526Z,77.10
2017-09-16T22:08:10.005Z,77.30
2017-09-16T22:10:38.626Z,77.40
2017-09-16T22:13:07.760Z,77.20
2017-09-16T22:15:36.102Z,77.30
2017-09-16T22:18:04.644Z,77.30
2017-09-16T22:20:33.117Z,77.90
2017-09-16T22:23:01.594Z,77.60
2017-09-16T22:25:29.958Z,77.80
2017-09-16T22:27:58.314Z,78.50
2017-09-16T22:30:27.645Z,79.20
2017-09-16T22:32:56.428Z,79.10
2017-09-16T22:35:24.791Z,79.30
2017-09-16T22:37:53.294Z,79.70
2017-09-16T22:40:21.701Z,79.50
2017-09-16T22:42:50.344Z,79.30
2017-09-16T22:45:18.763Z,79.10
2017-09-16T22:47:48.219Z,79.30
2017-09-16T22:50:16.599Z,79.70
2017-09-16T22:52:45.280Z,79.90
2017-09-16T22:55:13.632Z,80.10
2017-09-16T22:57:42.762Z,80.60
2017-09-16T23:00:10.766Z,80.60
2017-09-16T23:02:38.934Z,79.50
2017-09-16T23:05:07.293Z,79.30
2017-09-16T23:07:35.652Z,79.20
2017-09-16T23:10:03.659Z,79.80
2017-09-16T23:12:32.084Z,79.70
2017-09-16T23:15:00.441Z,79.90
2017-09-16T23:17:28.805Z,80.70
2017-09-16T23:19:57.167Z,80.70
2017-09-16T23:22:25.689Z,81.70
2017-09-16T23:24:54.167Z,82.00
2017-09-16T23:27:22.541Z,82.50
2017-09-16T23:29:50.897Z,82.90
2017-09-16T23:32:19.247Z,83.40
2017-09-16T23:34:47.878Z,83.20
2017-09-16T23:37:16.224Z,83.80
2017-09-16T23:39:44.830Z,84.00
2017-09-16T23:42:13.170Z,84.60
2017-09-16T23:44:41.787Z,85.00
2017-09-16T23:47:10.266Z,85.30
2017-09-16T23:49:38.692Z,86.20
2017-09-16T23:52:07.122Z,86.20
2017-09-16T23:54:35.475Z,86.70
2017-09-16T23:57:03.840Z,86.60
2017-09-16T23:59:32.211Z,87.30
